createdAt,value
2019-04-29T00:00:16.984Z,2.83
2019-04-29T00:02:43.167Z,5.00
2019-04-29T00:05:09.624Z,12.37
2019-04-29T00:07:36.226Z,14.73
2019-04-29T00:10:06.695Z,15.27
2019-04-29T00:12:32.867Z,7.07
2019-04-29T00:15:00.954Z,5.10
2019-04-29T00:17:29.156Z,4.40
2019-04-29T00:19:57.214Z,4.00
2019-04-29T00:22:23.499Z,3.43
2019-04-29T00:24:49.846Z,2.63
2019-04-29T00:27:16.044Z,2.93
2019-04-29T00:29:42.241Z,3.07
2019-04-29T00:32:09.494Z,1.90
2019-04-29T00:34:35.666Z,2.50
2019-04-29T00:37:09.456Z,2.03
2019-04-29T00:39:54.089Z,2.00
2019-04-29T00:42:22.197Z,2.20
2019-04-29T00:44:48.547Z,1.63
2019-04-29T00:47:14.820Z,1.70
2019-04-29T00:49:40.999Z,2.17
2019-04-29T00:52:07.167Z,2.10
2019-04-29T00:54:37.884Z,2.00
2019-04-29T00:57:04.193Z,1.63
2019-04-29T00:59:30.361Z,2.37
2019-04-29T01:01:56.634Z,2.07
2019-04-29T01:04:22.819Z,1.87
2019-04-29T01:06:48.971Z,2.07
2019-04-29T01:09:17.145Z,1.80
2019-04-29T01:11:43.397Z,1.87
2019-04-29T01:14:09.564Z,2.10
2019-04-29T01:16:35.738Z,2.10
2019-04-29T01:19:03.900Z,2.37
2019-04-29T01:21:30.002Z,2.03
2019-04-29T01:23:56.169Z,2.20
2019-04-29T01:26:39.090Z,2.20
2019-04-29T01:29:07.143Z,2.23
2019-04-29T01:31:33.403Z,2.57
2019-04-29T01:34:01.518Z,2.70
2019-04-29T01:36:29.564Z,2.47
2019-04-29T01:38:57.645Z,2.50
2019-04-29T01:41:40.858Z,2.53
2019-04-29T01:44:08.720Z,3.83
2019-04-29T01:46:34.973Z,3.27
2019-04-29T01:49:02.383Z,3.20
2019-04-29T01:51:28.559Z,3.20
2019-04-29T01:53:54.813Z,2.60
2019-04-29T01:56:21.027Z,3.10
2019-04-29T01:58:47.185Z,2.77
2019-04-29T02:01:13.449Z,2.63
2019-04-29T02:03:39.663Z,2.80
2019-04-29T02:06:05.814Z,2.63
2019-04-29T02:08:32.094Z,2.80
2019-04-29T02:10:58.424Z,2.83
2019-04-29T02:13:24.592Z,3.10
2019-04-29T02:15:50.766Z,3.07
2019-04-29T02:18:17.055Z,2.57
2019-04-29T02:20:43.217Z,2.93
2019-04-29T02:23:11.294Z,3.00
2019-04-29T02:25:45.426Z,2.93
2019-04-29T02:28:11.580Z,3.00
2019-04-29T02:30:44.480Z,2.60
2019-04-29T02:33:10.671Z,3.13
2019-04-29T02:35:36.823Z,2.80
2019-04-29T02:38:04.900Z,3.00
2019-04-29T02:40:33.016Z,3.13
2019-04-29T02:43:01.166Z,2.60
2019-04-29T02:45:29.227Z,2.80
2019-04-29T02:47:55.451Z,3.40
2019-04-29T02:50:21.724Z,3.93
2019-04-29T02:52:47.873Z,3.90
2019-04-29T02:55:16.080Z,4.30
2019-04-29T02:57:44.145Z,4.00
2019-04-29T03:00:18.059Z,4.80
2019-04-29T03:02:46.168Z,4.20
2019-04-29T03:05:14.236Z,4.53
2019-04-29T03:07:40.436Z,4.20
2019-04-29T03:10:06.991Z,4.27
2019-04-29T03:12:33.863Z,4.07
2019-04-29T03:15:00.067Z,4.37
2019-04-29T03:17:27.728Z,4.17
2019-04-29T03:20:07.699Z,4.07
2019-04-29T03:22:34.604Z,4.73
2019-04-29T03:25:00.773Z,4.10
2019-04-29T03:27:26.983Z,4.67
2019-04-29T03:29:53.144Z,4.67
2019-04-29T03:32:19.324Z,4.00
2019-04-29T03:34:45.517Z,4.50
2019-04-29T03:37:11.681Z,4.27
2019-04-29T03:39:37.845Z,3.60
2019-04-29T03:42:07.204Z,3.50
2019-04-29T03:44:32.121Z,4.17
2019-04-29T03:46:58.295Z,3.60
2019-04-29T03:49:24.506Z,3.77
2019-04-29T03:51:50.678Z,3.53
2019-04-29T03:54:16.876Z,3.80
2019-04-29T03:56:44.262Z,3.60
2019-04-29T03:59:10.517Z,3.70
2019-04-29T04:01:38.615Z,3.70
2019-04-29T04:04:06.770Z,3.97
2019-04-29T04:06:40.388Z,4.07
2019-04-29T04:09:20.118Z,4.10
2019-04-29T04:11:46.283Z,4.47
2019-04-29T04:14:12.446Z,4.00
2019-04-29T04:16:57.107Z,3.63
2019-04-29T04:19:24.741Z,3.83
2019-04-29T04:21:50.891Z,3.60
2019-04-29T04:24:17.081Z,3.60
2019-04-29T04:26:43.284Z,3.80
2019-04-29T04:29:09.450Z,3.80
2019-04-29T04:31:35.635Z,3.73
2019-04-29T04:34:01.814Z,3.27
2019-04-29T04:36:27.962Z,3.37
2019-04-29T04:38:54.166Z,3.27
2019-04-29T04:41:20.343Z,3.17
2019-04-29T04:43:46.487Z,3.23
2019-04-29T04:46:12.803Z,2.67
2019-04-29T04:48:38.979Z,2.83
2019-04-29T04:51:05.136Z,3.27
2019-04-29T04:53:31.354Z,3.33
2019-04-29T04:55:59.309Z,3.00
2019-04-29T04:58:25.466Z,2.97
2019-04-29T05:00:51.779Z,3.47
2019-04-29T05:03:17.956Z,3.00
2019-04-29T05:05:44.119Z,2.43
2019-04-29T05:08:10.317Z,2.10
2019-04-29T05:10:36.489Z,2.10
2019-04-29T05:13:02.644Z,3.20
2019-04-29T05:15:28.867Z,4.90
2019-04-29T05:17:55.052Z,3.83
2019-04-29T05:20:21.200Z,3.47
2019-04-29T05:22:59.023Z,4.17
2019-04-29T05:25:26.414Z,3.90
2019-04-29T05:27:52.592Z,4.47
2019-04-29T05:30:18.790Z,4.33
2019-04-29T05:32:44.989Z,4.13
2019-04-29T05:35:13.013Z,3.90
2019-04-29T05:37:46.658Z,3.77
2019-04-29T05:40:14.739Z,3.83
2019-04-29T05:42:40.909Z,4.17
2019-04-29T05:45:18.120Z,3.87
2019-04-29T05:47:52.258Z,3.90
2019-04-29T05:50:27.781Z,3.23
2019-04-29T05:52:58.360Z,3.33
2019-04-29T05:55:24.538Z,3.07
2019-04-29T05:57:50.742Z,3.00
2019-04-29T06:00:18.887Z,3.67
2019-04-29T06:02:46.011Z,3.20
2019-04-29T06:05:12.197Z,3.60
2019-04-29T06:07:38.352Z,3.43
2019-04-29T06:10:05.436Z,3.20
2019-04-29T06:12:31.626Z,3.50
2019-04-29T06:14:57.825Z,3.67
2019-04-29T06:17:24.004Z,3.10
2019-04-29T06:19:50.295Z,3.50
2019-04-29T06:22:16.455Z,3.07
2019-04-29T06:24:42.751Z,2.90
2019-04-29T06:27:08.960Z,3.40
2019-04-29T06:29:35.123Z,3.70
2019-04-29T06:32:01.306Z,3.70
2019-04-29T06:34:27.900Z,4.00
2019-04-29T06:36:54.065Z,3.90
2019-04-29T06:39:20.250Z,3.17
2019-04-29T06:41:46.977Z,3.57
2019-04-29T06:44:16.663Z,4.37
2019-04-29T06:46:41.363Z,4.10
2019-04-29T06:49:10.309Z,3.10
2019-04-29T06:51:35.637Z,3.37
2019-04-29T06:54:01.807Z,3.53
2019-04-29T06:56:28.031Z,3.73
2019-04-29T06:58:54.180Z,3.50
2019-04-29T07:01:20.340Z,3.83
2019-04-29T07:03:46.556Z,3.73
2019-04-29T07:06:12.735Z,3.80
2019-04-29T07:08:38.896Z,3.50
2019-04-29T07:11:05.181Z,3.60
2019-04-29T07:13:31.351Z,3.70
2019-04-29T07:15:57.603Z,3.17
2019-04-29T07:18:23.828Z,3.23
2019-04-29T07:20:49.988Z,3.33
2019-04-29T07:23:16.266Z,3.60
2019-04-29T07:25:42.471Z,3.27
2019-04-29T07:28:08.624Z,3.20
2019-04-29T07:30:39.255Z,3.43
2019-04-29T07:33:05.548Z,3.03
2019-04-29T07:35:31.270Z,3.00
2019-04-29T07:37:57.457Z,3.40
2019-04-29T07:40:23.664Z,3.53
2019-04-29T07:42:49.907Z,3.10
2019-04-29T07:45:18.183Z,3.37
2019-04-29T07:47:56.355Z,3.20
2019-04-29T07:50:14.614Z,3.27
2019-04-29T07:52:40.936Z,3.47
2019-04-29T07:55:07.952Z,3.40
2019-04-29T07:57:34.107Z,2.83
2019-04-29T08:00:00.266Z,2.87
2019-04-29T08:02:26.590Z,3.00
2019-04-29T08:04:52.868Z,2.80
2019-04-29T08:07:19.120Z,2.50
2019-04-29T08:09:46.339Z,2.90
2019-04-29T08:12:12.900Z,2.40
2019-04-29T08:14:39.168Z,2.50
2019-04-29T08:17:05.495Z,2.50
2019-04-29T08:19:31.869Z,3.40
2019-04-29T08:21:58.036Z,3.17
2019-04-29T08:24:24.247Z,3.37
2019-04-29T08:26:50.428Z,3.70
2019-04-29T08:29:16.586Z,3.33
2019-04-29T08:31:42.795Z,2.93
2019-04-29T08:34:08.972Z,2.60
2019-04-29T08:36:35.228Z,2.23
2019-04-29T08:39:08.214Z,2.93
2019-04-29T08:41:31.827Z,2.40
2019-04-29T08:44:16.446Z,2.57
2019-04-29T08:46:38.878Z,2.30
2019-04-29T08:49:06.156Z,2.60
2019-04-29T08:51:33.271Z,2.00
2019-04-29T08:53:59.424Z,2.50
2019-04-29T08:56:25.718Z,2.30
2019-04-29T08:58:51.899Z,3.10
2019-04-29T09:01:18.061Z,2.60
2019-04-29T09:03:44.337Z,2.30
2019-04-29T09:06:10.656Z,2.90
2019-04-29T09:08:36.840Z,2.60
2019-04-29T09:11:03.215Z,2.67
2019-04-29T09:13:29.442Z,2.60
2019-04-29T09:15:55.595Z,2.30
2019-04-29T09:18:21.750Z,2.57
2019-04-29T09:20:47.977Z,2.30
2019-04-29T09:23:16.059Z,2.40
2019-04-29T09:26:02.721Z,2.37
2019-04-29T09:28:29.885Z,1.97
2019-04-29T09:30:56.323Z,1.87
2019-04-29T09:33:22.762Z,2.13
2019-04-29T09:35:48.942Z,1.77
2019-04-29T09:38:15.133Z,2.37
2019-04-29T09:40:59.624Z,1.93
2019-04-29T09:43:34.035Z,2.07
2019-04-29T09:46:02.155Z,1.97
2019-04-29T09:48:28.319Z,1.80
2019-04-29T09:50:54.503Z,1.90
2019-04-29T09:53:20.811Z,1.60
2019-04-29T09:55:47.072Z,1.60
2019-04-29T09:58:13.256Z,1.60
2019-04-29T10:03:30.240Z,1.57
2019-04-29T10:05:58.335Z,1.60
2019-04-29T10:08:24.519Z,1.40
2019-04-29T10:10:50.667Z,1.53
2019-04-29T10:13:16.861Z,1.50
2019-04-29T10:16:02.066Z,1.50
2019-04-29T10:18:46.650Z,1.33
2019-04-29T10:21:16.529Z,1.43
2019-04-29T10:23:42.865Z,1.40
2019-04-29T10:26:09.177Z,1.50
2019-04-29T10:28:37.240Z,1.70
2019-04-29T10:31:04.218Z,1.60
2019-04-29T10:33:30.423Z,1.40
2019-04-29T10:35:56.679Z,1.50
2019-04-29T10:38:22.857Z,1.20
2019-04-29T10:43:43.828Z,1.30
2019-04-29T10:46:20.956Z,1.33
2019-04-29T10:48:52.254Z,1.97
2019-04-29T10:51:18.710Z,1.60
2019-04-29T10:53:46.612Z,1.67
2019-04-29T10:56:13.799Z,1.63
2019-04-29T10:58:39.956Z,1.50
2019-04-29T11:01:42.220Z,1.40
2019-04-29T11:04:08.858Z,1.40
2019-04-29T11:06:35.765Z,1.40
2019-04-29T11:11:44.204Z,1.53
2019-04-29T11:14:10.531Z,1.40
2019-04-29T11:16:46.066Z,1.70
2019-04-29T11:19:05.780Z,1.50
2019-04-29T11:21:32.493Z,1.37
2019-04-29T11:24:12.712Z,1.50
2019-04-29T11:26:49.587Z,1.53
2019-04-29T11:29:15.916Z,1.60
2019-04-29T11:31:42.173Z,1.60
2019-04-29T11:34:17.972Z,1.30
2019-04-29T11:36:44.278Z,1.30
2019-04-29T11:39:15.541Z,1.60
2019-04-29T11:41:41.802Z,1.60
2019-04-29T11:44:08.026Z,1.53
2019-04-29T11:46:34.306Z,1.40
2019-04-29T11:49:02.373Z,1.30
2019-04-29T11:51:54.213Z,1.43
2019-04-29T11:54:08.138Z,1.30
2019-04-29T11:56:35.865Z,1.37
2019-04-29T11:59:07.703Z,1.33
2019-04-29T12:01:53.475Z,2.53
2019-04-29T12:04:28.633Z,1.40
2019-04-29T12:06:56.254Z,1.30
2019-04-29T12:09:25.488Z,1.17
2019-04-29T12:11:51.743Z,1.30
2019-04-29T12:17:28.249Z,1.30
2019-04-29T12:20:02.375Z,1.60
2019-04-29T12:22:30.997Z,1.57
2019-04-29T12:24:57.514Z,1.40
2019-04-29T12:27:23.690Z,1.57
2019-04-29T12:29:54.437Z,1.60
2019-04-29T12:35:16.778Z,1.40
2019-04-29T12:38:05.896Z,1.50
2019-04-29T12:40:33.724Z,1.60
2019-04-29T12:43:04.573Z,1.53
2019-04-29T12:45:32.661Z,1.60
2019-04-29T12:47:58.933Z,1.60
2019-04-29T12:50:25.223Z,1.70
2019-04-29T12:52:51.424Z,1.67
2019-04-29T12:58:11.210Z,1.40
2019-04-29T13:00:47.493Z,1.70
2019-04-29T13:03:08.345Z,1.83
2019-04-29T13:05:42.266Z,1.80
2019-04-29T13:08:16.388Z,1.53
2019-04-29T13:10:44.477Z,1.67
2019-04-29T13:13:10.756Z,2.30
2019-04-29T13:15:56.104Z,1.87
2019-04-29T13:18:29.712Z,2.07
2019-04-29T13:21:09.203Z,1.80
2019-04-29T13:23:34.828Z,2.30
2019-04-29T13:25:56.119Z,1.90
2019-04-29T13:28:29.887Z,2.13
2019-04-29T13:30:51.545Z,2.00
2019-04-29T13:33:18.644Z,2.50
2019-04-29T13:35:48.465Z,2.70
2019-04-29T13:38:14.839Z,2.13
2019-04-29T13:40:42.937Z,2.03
2019-04-29T13:43:09.102Z,2.30
2019-04-29T13:45:37.209Z,2.63
2019-04-29T13:53:46.203Z,2.33
2019-04-29T13:56:32.210Z,2.57
2019-04-29T13:58:40.610Z,1.93
2019-04-29T14:01:22.057Z,2.63
2019-04-29T14:03:56.354Z,2.40
2019-04-29T14:06:22.624Z,2.10
2019-04-29T14:08:48.792Z,2.00
2019-04-29T14:11:15.128Z,2.13
2019-04-29T14:13:43.253Z,2.27
2019-04-29T14:16:12.035Z,2.30
2019-04-29T14:18:37.571Z,2.57
2019-04-29T14:21:03.842Z,2.60
2019-04-29T14:23:30.015Z,2.90
2019-04-29T14:25:56.290Z,2.50
2019-04-29T14:28:22.538Z,2.57
2019-04-29T14:30:49.227Z,3.03
2019-04-29T14:33:19.174Z,3.20
2019-04-29T14:35:50.117Z,2.70
2019-04-29T14:38:18.104Z,2.80
2019-04-29T14:40:44.309Z,2.73
2019-04-29T14:43:31.630Z,2.90
2019-04-29T14:45:58.832Z,2.37
2019-04-29T14:48:26.998Z,2.83
2019-04-29T14:50:56.111Z,2.97
2019-04-29T14:53:26.208Z,2.83
2019-04-29T14:55:52.365Z,3.07
2019-04-29T14:58:18.547Z,2.80
2019-04-29T15:03:29.230Z,2.63
2019-04-29T15:05:55.558Z,2.33
2019-04-29T15:08:21.752Z,3.00
2019-04-29T15:10:49.860Z,2.90
2019-04-29T15:13:21.388Z,2.60
2019-04-29T15:16:04.786Z,2.73
2019-04-29T15:21:32.022Z,2.83
2019-04-29T15:23:52.632Z,3.27
2019-04-29T15:26:20.435Z,3.10
2019-04-29T15:28:52.471Z,2.87
2019-04-29T15:31:22.266Z,3.00
2019-04-29T15:33:49.085Z,3.50
2019-04-29T15:36:15.287Z,3.20
2019-04-29T15:38:41.581Z,2.87
2019-04-29T15:41:07.868Z,2.80
2019-04-29T15:43:46.501Z,3.00
2019-04-29T15:46:02.164Z,3.10
2019-04-29T15:48:28.312Z,2.77
2019-04-29T15:50:54.469Z,3.00
2019-04-29T15:53:20.685Z,1.93
2019-04-29T15:55:46.837Z,2.00
2019-04-29T15:58:13.021Z,2.50
2019-04-29T16:00:40.429Z,2.17
2019-04-29T16:03:07.204Z,2.20
2019-04-29T16:05:56.142Z,2.10
2019-04-29T16:08:10.816Z,1.80
2019-04-29T16:10:57.852Z,2.03
2019-04-29T16:13:27.764Z,2.00
2019-04-29T16:15:51.698Z,2.47
2019-04-29T16:18:17.894Z,2.13
2019-04-29T16:20:44.058Z,2.03
2019-04-29T16:23:10.275Z,2.00
2019-04-29T16:25:40.523Z,1.80
2019-04-29T16:28:04.699Z,2.20
2019-04-29T16:30:32.008Z,1.90
2019-04-29T16:33:01.140Z,2.13
2019-04-29T16:35:34.481Z,1.87
2019-04-29T16:37:55.385Z,2.30
2019-04-29T16:40:22.787Z,2.23
2019-04-29T16:42:52.709Z,2.30
2019-04-29T16:45:20.867Z,1.93
2019-04-29T16:47:48.657Z,2.10
2019-04-29T16:50:14.955Z,2.13
2019-04-29T16:52:44.551Z,2.20
2019-04-29T16:55:09.551Z,2.37
2019-04-29T16:57:35.731Z,2.20
2019-04-29T17:02:33.700Z,2.73
2019-04-29T17:05:02.749Z,2.80
2019-04-29T17:07:29.232Z,2.57
2019-04-29T17:12:40.540Z,2.57
2019-04-29T17:15:23.642Z,2.53
2019-04-29T17:17:35.081Z,2.40
2019-04-29T17:20:01.963Z,2.93
2019-04-29T17:22:28.143Z,2.43
2019-04-29T17:24:54.300Z,3.40
2019-04-29T17:27:22.375Z,3.20
2019-04-29T17:30:03.487Z,2.20
2019-04-29T17:32:43.246Z,2.17
2019-04-29T17:35:05.075Z,2.83
2019-04-29T17:35:17.103Z,2.50
2019-04-29T17:37:32.216Z,2.50
2019-04-29T17:39:58.555Z,2.83
2019-04-29T17:42:26.683Z,2.53
2019-04-29T17:44:52.861Z,2.50
2019-04-29T17:47:37.841Z,2.80
2019-04-29T17:50:29.418Z,2.60
2019-04-29T17:52:47.222Z,2.80
2019-04-29T17:55:15.607Z,2.60
2019-04-29T17:57:43.686Z,2.80
2019-04-29T18:00:21.636Z,3.27
2019-04-29T18:02:57.284Z,3.00
2019-04-29T18:05:52.223Z,2.73
2019-04-29T18:08:05.247Z,2.50
2019-04-29T18:10:40.336Z,2.50
2019-04-29T18:13:06.735Z,2.80
2019-04-29T18:15:46.945Z,3.40
2019-04-29T18:18:07.271Z,6.47
2019-04-29T18:20:36.506Z,3.00
2019-04-29T18:23:11.063Z,2.93
2019-04-29T18:28:26.412Z,2.37
2019-04-29T18:30:54.465Z,2.47
2019-04-29T18:33:23.409Z,2.57
2019-04-29T18:35:48.983Z,2.53
2019-04-29T18:38:15.152Z,3.13
2019-04-29T18:40:42.257Z,2.67
2019-04-29T18:43:09.430Z,2.40
2019-04-29T18:45:36.809Z,2.70
2019-04-29T18:48:09.038Z,2.77
2019-04-29T18:50:34.227Z,2.87
2019-04-29T18:53:01.447Z,2.43
2019-04-29T18:55:28.186Z,2.50
2019-04-29T18:57:58.260Z,2.37
2019-04-29T19:00:22.723Z,2.30
2019-04-29T19:02:56.946Z,3.07
2019-04-29T19:05:18.978Z,2.63
2019-04-29T19:07:54.878Z,2.37
2019-04-29T19:10:17.893Z,4.07
2019-04-29T19:12:42.166Z,2.53
2019-04-29T19:15:11.774Z,2.90
2019-04-29T19:17:40.008Z,2.70
2019-04-29T19:20:08.655Z,2.40
2019-04-29T19:22:36.028Z,2.90
2019-04-29T19:25:03.044Z,2.20
2019-04-29T19:27:30.534Z,2.30
2019-04-29T19:29:59.151Z,2.27
2019-04-29T19:32:25.407Z,2.30
2019-04-29T19:34:54.932Z,2.30
2019-04-29T19:37:21.684Z,2.50
2019-04-29T19:39:47.839Z,2.57
2019-04-29T19:42:15.653Z,2.80
2019-04-29T19:44:42.223Z,3.20
2019-04-29T19:47:10.906Z,2.67
2019-04-29T19:49:40.205Z,3.07
2019-04-29T19:52:04.552Z,3.00
2019-04-29T19:54:30.701Z,2.53
2019-04-29T19:57:03.255Z,2.50
2019-04-29T19:59:26.122Z,3.10
2019-04-29T20:02:01.770Z,2.93
2019-04-29T20:04:39.510Z,2.57
2019-04-29T20:07:09.603Z,2.77
2019-04-29T20:09:37.227Z,2.90
2019-04-29T20:12:11.432Z,3.23
2019-04-29T20:14:33.745Z,2.33
2019-04-29T20:17:09.547Z,2.63
2019-04-29T20:19:30.695Z,2.60
2019-04-29T20:22:00.523Z,2.60
2019-04-29T20:24:26.378Z,2.73
2019-04-29T20:26:52.932Z,2.87
2019-04-29T20:29:19.808Z,3.00
2019-04-29T20:31:52.009Z,3.17
2019-04-29T20:34:20.119Z,2.83
2019-04-29T20:36:43.380Z,2.70
2019-04-29T20:39:15.320Z,3.03
2019-04-29T20:41:41.330Z,2.83
2019-04-29T20:44:09.189Z,2.63
2019-04-29T20:46:45.348Z,3.50
2019-04-29T20:49:05.696Z,3.00
2019-04-29T20:51:47.880Z,2.67
2019-04-29T20:54:04.478Z,2.63
2019-04-29T20:56:35.010Z,3.30
2019-04-29T20:59:02.085Z,3.90
2019-04-29T21:01:31.498Z,2.63
2019-04-29T21:03:58.021Z,2.73
2019-04-29T21:06:24.235Z,2.47
2019-04-29T21:08:51.230Z,2.43
2019-04-29T21:11:21.174Z,2.60
2019-04-29T21:13:56.007Z,2.87
2019-04-29T21:16:29.168Z,2.60
2019-04-29T21:18:54.264Z,2.90
2019-04-29T21:21:20.856Z,2.80
2019-04-29T21:23:48.247Z,2.67
2019-04-29T21:26:15.861Z,3.07
2019-04-29T21:28:44.629Z,3.37
2019-04-29T21:31:11.687Z,2.90
2019-04-29T21:33:38.548Z,2.80
2019-04-29T21:36:19.219Z,2.60
2019-04-29T21:39:00.935Z,2.87
2019-04-29T21:41:27.387Z,2.90
2019-04-29T21:43:54.700Z,3.10
2019-04-29T21:46:27.816Z,3.00
2019-04-29T21:48:49.109Z,2.63
2019-04-29T21:51:17.256Z,3.00
2019-04-29T21:53:43.449Z,2.97
2019-04-29T21:56:09.736Z,3.10
2019-04-29T21:58:36.521Z,3.20
2019-04-29T22:01:04.907Z,3.37
2019-04-29T22:03:31.377Z,3.40
2019-04-29T22:06:00.186Z,2.90
2019-04-29T22:08:29.796Z,2.70
2019-04-29T22:10:59.674Z,3.07
2019-04-29T22:13:22.216Z,3.27
2019-04-29T22:15:48.369Z,2.40
2019-04-29T22:18:17.420Z,2.90
2019-04-29T22:20:43.424Z,2.77
2019-04-29T22:23:13.234Z,2.70
2019-04-29T22:25:41.011Z,2.60
2019-04-29T22:28:06.264Z,2.97
2019-04-29T22:30:32.549Z,2.87
2019-04-29T22:32:59.948Z,2.40
2019-04-29T22:35:27.724Z,2.83
2019-04-29T22:37:55.505Z,1.90
2019-04-29T22:40:22.033Z,2.40
2019-04-29T22:43:04.821Z,2.20
2019-04-29T22:45:25.002Z,2.40
2019-04-29T22:47:54.367Z,2.77
2019-04-29T22:50:19.230Z,2.50
2019-04-29T22:52:45.438Z,2.83
2019-04-29T22:55:11.896Z,2.70
2019-04-29T22:57:38.052Z,3.10
2019-04-29T23:00:07.267Z,3.00
2019-04-29T23:02:33.433Z,3.07
2019-04-29T23:04:59.595Z,3.20
2019-04-29T23:07:25.894Z,2.70
2019-04-29T23:09:52.074Z,2.77
2019-04-29T23:12:18.757Z,2.83
2019-04-29T23:14:45.745Z,2.67
2019-04-29T23:17:13.355Z,2.73
2019-04-29T23:19:40.576Z,2.97
2019-04-29T23:22:21.947Z,2.80
2019-04-29T23:24:51.300Z,2.83
2019-04-29T23:27:19.608Z,2.60
2019-04-29T23:29:46.089Z,2.40
2019-04-29T23:32:12.348Z,2.67
2019-04-29T23:34:38.565Z,3.00
2019-04-29T23:37:04.736Z,2.60
2019-04-29T23:39:30.995Z,3.07
2019-04-29T23:41:57.211Z,3.13
2019-04-29T23:44:23.383Z,3.00
2019-04-29T23:46:49.561Z,3.50
2019-04-29T23:49:15.743Z,3.33
2019-04-29T23:51:41.923Z,3.57
2019-04-29T23:54:08.248Z,3.67
2019-04-29T23:56:42.831Z,3.40
2019-04-29T23:59:18.261Z,3.07
